Time;durP1;ratioP1;P1;durP2;ratioP2;P2;SDS_P1;SDS_P2;PMS_P1;PMS_P2;Temp;Humidity;BMP_temperature;BMP_pressure;BME280_temperature;BME280_humidity;BME280_pressure;Samples;Min_cycle;Max_cycle;Signal;HPM_P1;HPM_P2
2023/02/18 00:01:23;;;;;;;4.27;3.03;;;4.40;99.90;;;;;;5069023;28;20188;-71
2023/02/18 00:03:50;;;;;;;6.30;3.30;;;4.40;99.90;;;;;;5064250;28;20188;-71
2023/02/18 00:06:22;;;;;;;4.20;3.13;;;4.40;99.90;;;;;;5041170;28;20201;-71
2023/02/18 00:08:49;;;;;;;4.37;3.10;;;4.50;99.90;;;;;;5041332;28;20234;-71
2023/02/18 00:11:18;;;;;;;4.77;3.00;;;4.50;99.90;;;;;;5039598;28;20210;-71
2023/02/18 00:13:54;;;;;;;8.33;3.30;;;4.50;99.90;;;;;;5035505;28;20214;-71
2023/02/18 00:16:23;;;;;;;3.90;2.90;;;4.60;99.90;;;;;;5032986;28;20187;-71
2023/02/18 00:18:49;;;;;;;5.27;2.90;;;4.70;99.90;;;;;;5047193;28;20334;-71
2023/02/18 00:21:16;;;;;;;5.23;2.80;;;4.70;99.90;;;;;;5048671;28;20188;-71
2023/02/18 00:23:42;;;;;;;5.73;3.07;;;4.70;99.90;;;;;;5033427;28;20283;-71
2023/02/18 00:26:13;;;;;;;7.23;3.67;;;4.70;99.90;;;;;;5028019;28;20266;-70
2023/02/18 00:28:41;;;;;;;7.90;3.70;;;4.70;99.90;;;;;;5039809;28;20207;-71
2023/02/18 00:31:11;;;;;;;4.03;2.93;;;4.60;99.90;;;;;;5063918;28;20180;-71
2023/02/18 00:33:38;;;;;;;5.03;3.40;;;4.60;99.90;;;;;;5041047;28;20187;-71
2023/02/18 00:36:09;;;;;;;6.97;3.30;;;4.50;99.90;;;;;;5045858;28;20532;-71
2023/02/18 00:38:36;;;;;;;6.30;3.20;;;4.40;99.90;;;;;;5047655;28;20658;-71
2023/02/18 00:41:04;;;;;;;4.57;3.27;;;4.40;99.90;;;;;;5039487;28;20198;-71
2023/02/18 00:43:31;;;;;;;5.57;3.43;;;4.40;99.90;;;;;;5041729;28;20187;-70
2023/02/18 00:45:57;;;;;;;5.73;3.47;;;4.40;99.90;;;;;;5017584;28;20180;-71
2023/02/18 00:48:23;;;;;;;5.30;3.30;;;4.40;99.90;;;;;;5045625;28;20222;-71
2023/02/18 00:50:49;;;;;;;4.40;3.10;;;4.40;99.90;;;;;;5044614;28;20203;-71
2023/02/18 00:53:16;;;;;;;6.07;3.10;;;4.40;99.90;;;;;;5063771;28;20274;-70
2023/02/18 00:55:46;;;;;;;5.57;3.80;;;4.40;99.90;;;;;;5046730;28;20182;-70
2023/02/18 00:58:13;;;;;;;4.23;3.20;;;4.40;99.90;;;;;;5036694;28;20532;-71
2023/02/18 01:00:40;;;;;;;6.30;4.17;;;4.40;99.90;;;;;;5036075;28;20660;-71
2023/02/18 01:03:07;;;;;;;6.60;3.50;;;4.50;99.90;;;;;;5038399;28;20290;-71
2023/02/18 01:05:33;;;;;;;4.20;3.10;;;4.50;99.90;;;;;;5033824;28;20200;-71
2023/02/18 01:08:00;;;;;;;6.47;3.50;;;4.50;99.90;;;;;;5026129;28;20172;-71
2023/02/18 01:10:26;;;;;;;5.27;3.40;;;4.60;99.90;;;;;;5044524;28;20215;-71
2023/02/18 01:12:53;;;;;;;5.03;3.70;;;4.70;99.90;;;;;;5042365;28;20202;-71
2023/02/18 01:15:20;;;;;;;6.63;3.40;;;4.70;99.90;;;;;;5047142;28;20219;-71
2023/02/18 01:17:46;;;;;;;6.17;3.50;;;4.80;99.90;;;;;;5038366;28;20778;-71
2023/02/18 01:20:14;;;;;;;5.63;3.97;;;4.80;99.90;;;;;;5037582;28;20183;-71
2023/02/18 01:22:41;;;;;;;8.90;4.80;;;4.90;99.90;;;;;;5036374;28;20241;-71
2023/02/18 01:25:09;;;;;;;4.83;3.70;;;4.90;99.90;;;;;;5045449;28;20233;-71
2023/02/18 01:27:36;;;;;;;6.40;4.13;;;4.90;99.90;;;;;;5043107;28;20197;-71
2023/02/18 01:30:11;;;;;;;6.30;5.13;;;4.90;99.90;;;;;;5048141;28;20207;-70
2023/02/18 01:32:37;;;;;;;4.47;3.90;;;4.90;99.90;;;;;;5047396;28;20592;-70
2023/02/18 01:35:06;;;;;;;3.77;3.27;;;4.90;99.90;;;;;;5029890;28;20180;-70
2023/02/18 01:37:33;;;;;;;6.07;3.53;;;4.90;99.90;;;;;;5036557;28;20298;-70
2023/02/18 01:39:59;;;;;;;4.33;3.30;;;4.90;99.90;;;;;;5042916;28;20361;-71
2023/02/18 01:42:28;;;;;;;6.70;3.87;;;4.90;99.90;;;;;;5049717;28;20196;-71
2023/02/18 01:45:41;;;;;;;8.67;4.20;;;4.90;99.90;;;;;;5051074;28;20824;-71
2023/02/18 01:48:12;;;;;;;5.13;3.50;;;4.90;99.90;;;;;;5046176;28;20187;-71
2023/02/18 01:50:46;;;;;;;5.33;3.50;;;4.90;99.90;;;;;;5046655;28;20236;-71
2023/02/18 01:53:27;;;;;;;6.30;3.40;;;4.90;99.90;;;;;;5043665;28;20184;-71
2023/02/18 01:55:54;;;;;;;5.10;3.13;;;4.80;99.90;;;;;;5045917;28;20274;-71
2023/02/18 01:58:21;;;;;;;3.87;2.80;;;4.80;99.90;;;;;;5039596;28;20191;-70
2023/02/18 02:00:47;;;;;;;5.23;3.17;;;4.70;99.90;;;;;;5052752;28;20801;-71
2023/02/18 02:03:13;;;;;;;3.10;2.57;;;4.70;99.90;;;;;;5039312;28;20808;-71
2023/02/18 02:05:40;;;;;;;4.80;2.70;;;4.70;99.90;;;;;;5033832;28;20192;-71
2023/02/18 02:08:07;;;;;;;3.47;2.70;;;4.80;99.90;;;;;;5041106;28;20949;-71
2023/02/18 02:11:11;;;;;;;3.73;2.67;;;5.00;99.90;;;;;;5042368;28;20191;-71
2023/02/18 02:13:58;;;;;;;4.67;3.07;;;5.10;99.90;;;;;;5049464;28;20197;-71
2023/02/18 02:16:54;;;;;;;4.00;2.80;;;5.20;99.90;;;;;;5052305;28;20194;-71
2023/02/18 02:20:09;;;;;;;6.47;3.23;;;5.20;99.90;;;;;;5055091;28;20201;-71
2023/02/18 02:23:06;;;;;;;5.00;3.43;;;5.20;99.90;;;;;;5047262;28;20610;-70
2023/02/18 02:26:22;;;;;;;8.40;5.10;;;5.20;99.90;;;;;;5033798;28;20191;-70
2023/02/18 02:29:45;;;;;;;8.83;6.10;;;5.20;99.90;;;;;;5032035;28;20243;-70
2023/02/18 02:32:38;;;;;;;31.37;14.60;;;5.20;99.90;;;;;;5060158;28;20191;-70
2023/02/18 02:35:07;;;;;;;27.33;11.43;;;5.20;99.90;;;;;;5039347;28;20194;-70
2023/02/18 02:37:59;;;;;;;10.50;5.57;;;5.20;99.90;;;;;;5072911;28;20676;-70
2023/02/18 02:40:33;;;;;;;13.97;7.50;;;5.20;99.90;;;;;;5047267;28;20264;-70
2023/02/18 02:43:52;;;;;;;29.10;13.90;;;5.20;99.90;;;;;;5037900;28;20179;-70
2023/02/18 02:46:39;;;;;;;16.40;7.80;;;5.10;99.90;;;;;;5039901;28;20322;-70
2023/02/18 02:49:36;;;;;;;10.70;5.33;;;5.10;99.90;;;;;;5050253;28;20293;-70
2023/02/18 02:52:29;;;;;;;13.20;7.87;;;5.10;99.90;;;;;;5051966;28;20191;-69
2023/02/18 02:54:58;;;;;;;6.77;4.70;;;5.10;99.90;;;;;;5067572;28;20190;-70
2023/02/18 02:57:25;;;;;;;4.27;3.17;;;5.10;99.90;;;;;;5038523;28;20178;-73
2023/02/18 03:00:04;;;;;;;5.30;3.20;;;5.00;99.90;;;;;;5051525;28;20205;-73
2023/02/18 03:03:23;;;;;;;6.03;3.40;;;5.00;99.90;;;;;;5035529;28;20194;-73
2023/02/18 03:06:36;;;;;;;4.83;3.00;;;5.00;99.90;;;;;;5029858;28;20217;-73
2023/02/18 03:09:23;;;;;;;3.30;2.53;;;4.60;99.90;;;;;;5040500;28;20677;-73
2023/02/18 03:12:16;;;;;;;6.13;3.17;;;4.20;99.90;;;;;;5041216;28;20187;-73
2023/02/18 03:15:04;;;;;;;6.20;3.17;;;4.00;99.90;;;;;;5039018;28;20187;-73
2023/02/18 03:17:57;;;;;;;9.93;5.40;;;3.90;99.90;;;;;;5033762;28;20188;-73
2023/02/18 03:20:34;;;;;;;10.40;5.47;;;3.80;99.90;;;;;;5040998;28;20191;-73
2023/02/18 03:23:08;;;;;;;6.43;4.20;;;3.80;99.90;;;;;;5028956;28;20196;-73
2023/02/18 03:25:37;;;;;;;8.67;5.30;;;4.00;99.90;;;;;;5041910;28;20183;-73
2023/02/18 03:28:18;;;;;;;5.90;4.30;;;4.10;99.90;;;;;;5038654;28;20192;-73
2023/02/18 03:30:56;;;;;;;4.90;4.00;;;4.10;99.90;;;;;;5043711;28;20209;-73
2023/02/18 03:33:38;;;;;;;6.17;4.43;;;4.00;99.90;;;;;;5035248;28;20243;-73
2023/02/18 03:36:05;;;;;;;5.57;3.67;;;4.00;99.90;;;;;;5039919;28;20187;-73
2023/02/18 03:38:49;;;;;;;7.47;3.40;;;3.90;99.90;;;;;;5039821;28;20246;-73
2023/02/18 03:41:15;;;;;;;5.43;3.57;;;3.90;99.90;;;;;;5040979;28;20316;-73
2023/02/18 03:43:59;;;;;;;5.50;3.80;;;3.80;99.90;;;;;;5049200;28;20194;-73
2023/02/18 03:46:29;;;;;;;7.67;4.03;;;3.80;99.90;;;;;;5047768;28;20274;-73
2023/02/18 03:48:56;;;;;;;6.70;4.40;;;3.90;99.90;;;;;;5049578;28;20695;-73
2023/02/18 03:51:25;;;;;;;7.07;3.60;;;3.80;99.90;;;;;;5046509;28;20190;-73
2023/02/18 03:53:52;;;;;;;4.70;3.50;;;3.80;99.90;;;;;;5040820;28;20194;-73
2023/02/18 03:56:19;;;;;;;5.63;3.80;;;3.80;99.90;;;;;;5046465;28;21048;-73
2023/02/18 03:58:46;;;;;;;4.63;3.37;;;3.80;99.90;;;;;;5046860;28;20194;-73
2023/02/18 04:01:13;;;;;;;5.97;3.70;;;3.80;99.90;;;;;;5043154;28;20610;-73
2023/02/18 04:03:39;;;;;;;4.13;3.13;;;3.80;99.90;;;;;;5043966;28;20202;-73
2023/02/18 04:06:06;;;;;;;6.27;3.30;;;3.70;99.90;;;;;;5037119;28;20688;-73
2023/02/18 04:08:33;;;;;;;4.30;3.03;;;3.80;99.90;;;;;;5047177;28;20226;-73
2023/02/18 04:11:00;;;;;;;3.43;2.87;;;3.70;99.90;;;;;;5045487;28;20639;-73
2023/02/18 04:13:27;;;;;;;3.70;2.67;;;3.60;99.90;;;;;;5044876;28;20175;-73
2023/02/18 04:15:53;;;;;;;3.93;2.80;;;3.50;99.90;;;;;;5043458;28;20195;-73
2023/02/18 04:18:19;;;;;;;4.00;3.00;;;3.50;99.90;;;;;;5032560;28;20542;-73
2023/02/18 04:20:46;;;;;;;4.30;3.20;;;3.60;99.90;;;;;;5043729;28;20188;-73
2023/02/18 04:23:12;;;;;;;5.10;3.60;;;3.60;99.90;;;;;;5048963;28;20791;-73
2023/02/18 04:25:38;;;;;;;3.53;2.63;;;3.50;99.90;;;;;;5034393;28;20188;-73
2023/02/18 04:28:05;;;;;;;4.80;3.10;;;3.50;99.90;;;;;;5039137;28;20185;-73
2023/02/18 04:30:32;;;;;;;5.07;3.80;;;3.50;99.90;;;;;;5041894;28;20238;-73
2023/02/18 04:32:58;;;;;;;4.30;3.30;;;3.50;99.90;;;;;;5043665;28;20266;-73
2023/02/18 04:35:24;;;;;;;6.47;3.30;;;3.50;99.90;;;;;;5041674;28;20187;-73
2023/02/18 04:37:51;;;;;;;4.40;3.10;;;3.50;99.90;;;;;;5059691;28;20239;-73
2023/02/18 04:40:17;;;;;;;4.37;2.90;;;3.50;99.90;;;;;;5041808;28;20176;-73
2023/02/18 04:42:43;;;;;;;4.87;3.13;;;3.50;99.90;;;;;;5042544;28;20234;-73
2023/02/18 04:45:09;;;;;;;4.30;2.97;;;3.50;99.90;;;;;;5040738;28;20252;-73
2023/02/18 04:47:35;;;;;;;3.17;2.60;;;3.60;99.90;;;;;;5042387;28;20227;-73
2023/02/18 04:50:02;;;;;;;5.17;3.20;;;3.60;99.90;;;;;;5056748;28;20577;-73
2023/02/18 04:52:29;;;;;;;4.00;3.13;;;3.60;99.90;;;;;;5059655;28;20225;-73
2023/02/18 04:54:55;;;;;;;4.50;3.20;;;3.70;99.90;;;;;;5044793;28;20211;-73
2023/02/18 04:57:21;;;;;;;4.07;2.87;;;3.70;99.90;;;;;;5045402;28;20192;-73
2023/02/18 04:59:47;;;;;;;5.80;2.80;;;3.80;99.90;;;;;;5044220;28;20180;-73
2023/02/18 05:02:13;;;;;;;5.27;3.17;;;3.80;99.90;;;;;;5039476;28;20192;-73
2023/02/18 05:04:40;;;;;;;5.27;3.27;;;3.70;99.90;;;;;;5058039;28;20219;-73
2023/02/18 05:07:06;;;;;;;3.73;2.93;;;3.70;99.90;;;;;;5041192;28;20188;-73
2023/02/18 05:09:32;;;;;;;3.43;2.90;;;3.80;99.90;;;;;;5059516;28;20211;-73
2023/02/18 05:11:58;;;;;;;4.73;2.80;;;3.80;99.90;;;;;;5039417;28;20690;-73
2023/02/18 05:14:24;;;;;;;4.60;2.77;;;3.80;99.90;;;;;;5038826;28;20256;-73
2023/02/18 05:16:51;;;;;;;4.53;3.07;;;3.80;99.90;;;;;;5037380;28;20271;-73
2023/02/18 05:19:17;;;;;;;4.43;3.37;;;3.80;99.90;;;;;;5042881;28;20191;-73
2023/02/18 05:21:46;;;;;;;4.83;3.20;;;3.80;99.90;;;;;;5054109;28;20192;-73
2023/02/18 05:24:13;;;;;;;4.20;3.27;;;3.80;99.90;;;;;;5045660;28;20186;-73
2023/02/18 05:26:40;;;;;;;6.10;3.50;;;3.80;99.90;;;;;;5037363;28;20187;-73
2023/02/18 05:29:06;;;;;;;4.27;3.00;;;3.90;99.90;;;;;;5041310;28;20285;-73
2023/02/18 05:31:33;;;;;;;6.17;3.53;;;3.80;99.90;;;;;;5059730;28;20195;-73
2023/02/18 05:33:59;;;;;;;6.10;3.60;;;3.80;99.90;;;;;;5041461;28;20199;-73
2023/02/18 05:36:34;;;;;;;4.50;3.17;;;3.80;99.90;;;;;;5040270;28;20183;-73
2023/02/18 05:39:00;;;;;;;5.03;3.33;;;3.90;99.90;;;;;;5038288;28;20183;-73
2023/02/18 05:41:27;;;;;;;6.60;4.00;;;3.90;99.90;;;;;;5040626;28;20302;-73
2023/02/18 05:46:37;;;;;;;5.33;3.90;;;4.10;99.90;;;;;;5034546;28;20187;-73
2023/02/18 05:49:03;;;;;;;4.57;3.20;;;4.20;99.90;;;;;;5036978;28;20207;-73
2023/02/18 05:51:30;;;;;;;6.07;3.50;;;4.30;99.90;;;;;;5015846;28;20183;-74
2023/02/18 05:53:56;;;;;;;3.13;2.73;;;4.50;99.90;;;;;;5057675;28;20203;-73
2023/02/18 05:56:22;;;;;;;6.20;3.10;;;4.60;99.90;;;;;;5058994;28;20594;-73
2023/02/18 05:58:49;;;;;;;3.67;2.53;;;4.70;99.90;;;;;;5037283;28;20267;-73
2023/02/18 06:01:15;;;;;;;8.83;3.63;;;4.80;99.90;;;;;;5036473;28;20321;-73
2023/02/18 06:03:41;;;;;;;5.07;2.73;;;4.90;99.90;;;;;;5040422;28;20197;-73
2023/02/18 06:06:08;;;;;;;4.47;3.07;;;5.00;99.90;;;;;;5036992;28;20234;-73
2023/02/18 06:08:34;;;;;;;2.70;2.47;;;5.10;99.90;;;;;;5053342;28;20200;-73
2023/02/18 06:11:00;;;;;;;4.40;3.00;;;5.20;99.90;;;;;;5040333;28;20188;-73
2023/02/18 06:13:26;;;;;;;4.43;3.10;;;5.30;99.90;;;;;;5041682;28;20262;-73
2023/02/18 06:15:53;;;;;;;4.20;2.70;;;5.40;99.90;;;;;;5033035;28;20184;-74
2023/02/18 06:18:21;;;;;;;3.70;2.97;;;5.50;99.90;;;;;;5042966;28;20537;-73
2023/02/18 06:20:51;;;;;;;6.80;2.97;;;5.60;99.90;;;;;;5046174;28;20459;-73
2023/02/18 06:23:17;;;;;;;4.13;2.70;;;5.70;99.90;;;;;;5041950;28;20180;-73
2023/02/18 06:25:44;;;;;;;6.90;3.00;;;5.70;99.90;;;;;;5042165;28;20179;-74
2023/02/18 06:28:10;;;;;;;5.97;2.87;;;5.80;99.90;;;;;;5035722;28;20194;-73
2023/02/18 06:30:36;;;;;;;6.03;3.00;;;5.80;99.90;;;;;;5035559;28;20212;-74
2023/02/18 06:33:03;;;;;;;5.10;3.10;;;5.90;99.90;;;;;;5042694;28;20557;-73
2023/02/18 06:35:30;;;;;;;3.37;2.63;;;5.90;99.90;;;;;;5039207;28;20305;-74
2023/02/18 06:37:57;;;;;;;4.07;2.90;;;5.90;99.90;;;;;;5020714;28;20184;-73
2023/02/18 06:40:23;;;;;;;5.87;3.07;;;6.00;99.90;;;;;;5037256;28;20257;-73
2023/02/18 06:42:49;;;;;;;6.17;2.93;;;5.90;99.90;;;;;;5036350;28;20778;-73
2023/02/18 06:45:15;;;;;;;4.23;2.67;;;6.00;99.90;;;;;;5042977;28;20198;-74
2023/02/18 06:47:41;;;;;;;4.23;3.07;;;6.20;99.90;;;;;;5055174;28;20187;-73
2023/02/18 06:50:08;;;;;;;4.63;2.80;;;6.20;99.90;;;;;;5041488;28;20329;-73
2023/02/18 06:52:36;;;;;;;5.10;2.70;;;6.20;99.90;;;;;;5042119;28;20183;-73
2023/02/18 06:55:08;;;;;;;4.70;2.40;;;6.20;99.90;;;;;;5041576;28;20194;-74
2023/02/18 06:57:35;;;;;;;3.20;2.73;;;6.20;99.90;;;;;;5040957;28;20180;-73
2023/02/18 07:00:01;;;;;;;4.10;2.60;;;6.20;99.90;;;;;;5034993;28;20203;-74
2023/02/18 07:02:27;;;;;;;4.50;2.73;;;6.20;99.90;;;;;;5056119;28;20194;-73
2023/02/18 07:04:54;;;;;;;2.60;2.40;;;6.20;99.90;;;;;;5042976;28;20207;-73
2023/02/18 07:07:22;;;;;;;3.37;2.50;;;6.60;99.90;;;;;;5040793;28;20187;-73
2023/02/18 07:09:53;;;;;;;3.07;2.27;;;6.60;99.90;;;;;;5039469;28;20200;-73
2023/02/18 07:12:19;;;;;;;3.50;2.40;;;6.60;99.90;;;;;;5043005;28;20211;-73
2023/02/18 07:14:45;;;;;;;4.00;2.40;;;6.60;99.90;;;;;;5034774;28;20188;-73
2023/02/18 07:17:11;;;;;;;3.53;2.47;;;6.70;99.90;;;;;;5040473;28;20269;-73
2023/02/18 07:19:38;;;;;;;3.30;2.80;;;6.90;99.90;;;;;;5043662;28;20278;-73
2023/02/18 07:22:04;;;;;;;5.03;2.80;;;7.00;99.90;;;;;;5045668;28;20184;-74
2023/02/18 07:24:31;;;;;;;4.33;2.60;;;7.00;99.90;;;;;;5043530;28;20266;-73
2023/02/18 07:26:57;;;;;;;5.53;2.80;;;7.00;99.90;;;;;;5038575;28;20207;-73
2023/02/18 07:29:23;;;;;;;4.03;2.70;;;7.10;99.90;;;;;;5043496;28;20215;-73
2023/02/18 07:31:50;;;;;;;3.20;2.63;;;7.10;99.90;;;;;;5038707;28;20197;-73
2023/02/18 07:34:19;;;;;;;3.63;2.27;;;7.20;99.90;;;;;;5047325;28;20829;-73
2023/02/18 07:36:45;;;;;;;9.47;2.90;;;7.30;99.90;;;;;;5057053;28;20245;-73
2023/02/18 07:39:11;;;;;;;6.40;2.77;;;7.50;99.90;;;;;;5076439;28;20197;-73
2023/02/18 07:41:39;;;;;;;4.17;2.33;;;7.60;99.90;;;;;;5038990;28;20191;-73
2023/02/18 07:44:05;;;;;;;3.37;2.50;;;7.70;99.90;;;;;;5040975;28;20222;-73
2023/02/18 07:46:34;;;;;;;3.47;2.67;;;7.90;99.90;;;;;;5044901;28;20256;-73
2023/02/18 07:49:01;;;;;;;5.73;2.67;;;8.20;99.90;;;;;;5076919;28;20567;-74
2023/02/18 07:51:27;;;;;;;3.80;2.53;;;8.40;99.90;;;;;;5045045;28;20186;-73
2023/02/18 07:53:53;;;;;;;4.87;2.53;;;8.40;99.90;;;;;;5055752;28;20191;-73
2023/02/18 07:56:20;;;;;;;3.63;2.50;;;8.50;99.90;;;;;;5042005;28;20663;-74
2023/02/18 07:58:46;;;;;;;3.10;2.37;;;8.80;99.90;;;;;;5039880;28;20187;-73
2023/02/18 08:01:14;;;;;;;5.73;2.73;;;8.80;99.90;;;;;;5053015;28;20196;-74
2023/02/18 08:03:42;;;;;;;3.63;3.10;;;8.80;99.90;;;;;;5039922;28;20196;-73
2023/02/18 08:06:18;;;;;;;2.80;2.20;;;8.90;99.90;;;;;;5057113;28;20195;-73
2023/02/18 08:08:44;;;;;;;3.93;2.67;;;9.00;99.90;;;;;;5038837;28;21148;-74
2023/02/18 08:11:10;;;;;;;8.47;3.10;;;9.10;99.90;;;;;;5041200;28;20611;-74
2023/02/18 08:13:36;;;;;;;5.97;2.60;;;9.10;99.90;;;;;;5042624;28;20267;-73
2023/02/18 08:16:06;;;;;;;4.03;2.53;;;9.30;99.90;;;;;;5035768;28;20192;-73
2023/02/18 08:18:32;;;;;;;4.00;2.60;;;9.10;99.90;;;;;;5042827;28;20824;-74
2023/02/18 08:20:58;;;;;;;3.37;2.43;;;9.00;99.90;;;;;;5044201;28;20265;-74
2023/02/18 08:23:25;;;;;;;3.20;2.47;;;8.90;99.90;;;;;;5043649;28;20278;-73
2023/02/18 08:25:53;;;;;;;3.73;2.40;;;9.10;99.90;;;;;;5040398;28;20188;-74
2023/02/18 08:28:22;;;;;;;6.60;3.00;;;9.50;99.90;;;;;;5044874;28;20192;-74
2023/02/18 08:30:51;;;;;;;3.13;2.50;;;9.50;99.90;;;;;;5040084;28;20208;-74
2023/02/18 08:33:19;;;;;;;3.37;2.47;;;9.60;99.90;;;;;;5025333;28;20184;-74
2023/02/18 08:35:48;;;;;;;3.87;2.50;;;9.90;99.90;;;;;;5039123;28;20192;-74
2023/02/18 08:38:14;;;;;;;5.00;2.50;;;10.20;99.90;;;;;;5041720;28;20191;-73
2023/02/18 08:40:41;;;;;;;3.43;2.50;;;10.20;99.90;;;;;;5039380;28;20223;-74
2023/02/18 08:43:08;;;;;;;4.70;3.00;;;10.20;99.90;;;;;;5038962;28;20676;-74
2023/02/18 08:45:37;;;;;;;3.63;2.70;;;10.30;99.90;;;;;;5038035;28;20192;-74
2023/02/18 08:48:07;;;;;;;5.13;2.70;;;10.40;99.90;;;;;;5040766;28;20989;-74
2023/02/18 08:50:34;;;;;;;4.73;2.73;;;10.20;99.90;;;;;;5035880;28;20596;-73
2023/02/18 08:53:02;;;;;;;4.40;2.90;;;10.10;99.90;;;;;;5052375;28;20227;-74
2023/02/18 08:55:30;;;;;;;4.30;2.70;;;10.30;99.90;;;;;;5040063;28;20225;-74
2023/02/18 08:57:56;;;;;;;7.27;3.00;;;10.30;99.90;;;;;;5043326;28;20184;-73
2023/02/18 09:00:23;;;;;;;2.83;2.53;;;10.20;99.90;;;;;;5056658;28;20772;-74
2023/02/18 09:02:49;;;;;;;5.73;3.17;;;10.10;99.90;;;;;;5037489;28;20196;-74
2023/02/18 09:05:16;;;;;;;6.07;3.17;;;10.10;99.90;;;;;;5038508;28;20324;-74
2023/02/18 09:07:48;;;;;;;4.97;3.07;;;10.40;99.90;;;;;;5046008;28;20675;-74
2023/02/18 09:10:16;;;;;;;4.53;2.70;;;10.60;99.90;;;;;;5040051;28;20239;-74
2023/02/18 09:12:42;;;;;;;4.93;2.87;;;10.50;99.90;;;;;;5042619;28;20183;-74
2023/02/18 09:15:09;;;;;;;5.03;2.73;;;10.50;99.90;;;;;;5045735;28;20199;-74
2023/02/18 09:17:36;;;;;;;5.70;3.03;;;10.80;99.90;;;;;;5045751;28;20207;-74
2023/02/18 09:20:03;;;;;;;7.57;2.87;;;10.70;99.90;;;;;;5037352;28;20818;-74
2023/02/18 09:22:31;;;;;;;5.80;2.63;;;10.60;99.90;;;;;;5037923;28;20194;-73
2023/02/18 09:24:58;;;;;;;4.20;2.57;;;10.50;99.90;;;;;;5044780;28;20203;-74
2023/02/18 09:27:25;;;;;;;6.53;2.97;;;10.60;99.90;;;;;;5035857;28;20191;-74
2023/02/18 09:29:51;;;;;;;6.00;2.60;;;10.80;99.90;;;;;;5039308;28;20891;-73
2023/02/18 09:32:18;;;;;;;3.93;2.43;;;11.10;99.90;;;;;;5038359;28;20645;-73
2023/02/18 09:34:44;;;;;;;7.43;2.97;;;11.30;99.90;;;;;;5039755;28;20202;-74
2023/02/18 09:37:14;;;;;;;3.83;2.53;;;11.30;99.90;;;;;;5040838;28;20196;-74
2023/02/18 09:39:41;;;;;;;3.67;2.77;;;11.30;99.90;;;;;;5038577;28;20198;-74
2023/02/18 09:42:16;;;;;;;5.73;2.90;;;11.30;99.90;;;;;;5032174;28;20595;-74
2023/02/18 09:44:51;;;;;;;4.90;2.90;;;11.60;99.90;;;;;;5042532;28;20287;-74
2023/02/18 09:47:36;;;;;;;4.60;2.57;;;11.70;99.90;;;;;;5036954;28;20657;-74
2023/02/18 09:50:34;;;;;;;6.97;2.70;;;11.70;99.90;;;;;;5033515;28;20587;-74
2023/02/18 09:53:03;;;;;;;4.13;2.20;;;11.60;99.90;;;;;;5052559;28;20696;-74
2023/02/18 09:55:37;;;;;;;4.33;2.37;;;11.60;99.90;;;;;;5039552;28;20195;-74
2023/02/18 09:58:19;;;;;;;7.50;2.53;;;11.60;99.90;;;;;;5017328;28;20187;-74
2023/02/18 10:01:10;;;;;;;5.90;2.30;;;11.50;99.90;;;;;;5037251;28;20868;-74
2023/02/18 10:03:37;;;;;;;6.00;2.83;;;11.70;99.90;;;;;;5038929;28;20195;-74
2023/02/18 10:06:24;;;;;;;7.40;2.87;;;11.80;99.90;;;;;;5038105;28;20192;-74
2023/02/18 10:08:54;;;;;;;4.10;2.70;;;12.00;99.90;;;;;;5039610;28;20211;-74
2023/02/18 10:11:30;;;;;;;3.53;2.40;;;12.10;99.90;;;;;;5039706;28;20291;-74
2023/02/18 10:13:59;;;;;;;4.70;2.50;;;12.20;99.90;;;;;;5030728;28;20196;-74
2023/02/18 10:16:27;;;;;;;4.17;2.47;;;12.30;99.90;;;;;;5035732;28;20199;-74
2023/02/18 10:19:20;;;;;;;4.40;2.50;;;12.40;99.90;;;;;;5042229;28;20190;-74
2023/02/18 10:21:48;;;;;;;3.47;2.37;;;12.30;99.90;;;;;;5036642;28;20192;-74
2023/02/18 10:24:59;;;;;;;4.83;2.43;;;12.20;99.90;;;;;;5040460;28;20191;-74
2023/02/18 10:27:34;;;;;;;4.00;2.67;;;12.30;99.90;;;;;;5039487;28;20631;-74
2023/02/18 10:30:24;;;;;;;5.67;2.60;;;12.40;99.90;;;;;;5035701;28;20579;-74
2023/02/18 10:33:58;;;;;;;3.33;2.53;;;12.60;99.90;;;;;;5035843;28;20560;-74
2023/02/18 10:37:10;;;;;;;3.93;2.90;;;12.50;99.90;;;;;;5016382;28;20184;-74
2023/02/18 10:40:20;;;;;;;4.17;2.73;;;12.60;99.90;;;;;;5032542;28;20199;-74
2023/02/18 10:43:37;;;;;;;5.30;2.67;;;12.70;99.90;;;;;;5057614;28;20202;-74
2023/02/18 10:46:58;;;;;;;3.27;2.30;;;13.10;99.90;;;;;;5036756;28;20619;-74
2023/02/18 10:49:36;;;;;;;6.30;2.40;;;13.50;99.90;;;;;;5034600;28;20237;-74
2023/02/18 10:52:05;;;;;;;3.97;2.30;;;13.60;99.90;;;;;;5040004;28;20660;-74
2023/02/18 10:55:00;;;;;;;4.80;2.33;;;14.30;99.90;;;;;;5038717;28;20202;-74
2023/02/18 10:57:27;;;;;;;6.20;2.40;;;14.60;99.90;;;;;;5037933;28;20199;-74
2023/02/18 11:00:14;;;;;;;4.87;2.50;;;14.80;99.90;;;;;;5036888;28;20201;-74
2023/02/18 11:02:42;;;;;;;4.67;2.60;;;15.10;99.90;;;;;;5033790;28;20195;-74
2023/02/18 11:05:28;;;;;;;4.70;2.60;;;14.80;99.90;;;;;;5059566;28;20188;-74
2023/02/18 11:07:57;;;;;;;4.83;2.47;;;15.20;99.90;;;;;;5037788;28;20230;-74
2023/02/18 11:10:37;;;;;;;3.70;2.33;;;15.10;99.90;;;;;;5039512;28;20218;-74
2023/02/18 11:13:09;;;;;;;5.67;2.50;;;15.40;99.90;;;;;;5026347;28;20194;-74
2023/02/18 11:15:36;;;;;;;4.73;2.47;;;15.70;99.90;;;;;;5044259;28;20190;-74
2023/02/18 11:18:28;;;;;;;3.77;2.40;;;15.60;99.90;;;;;;5041623;28;20329;-74
2023/02/18 11:20:58;;;;;;;6.27;2.57;;;15.80;99.90;;;;;;5043856;28;20922;-74
2023/02/18 11:23:25;;;;;;;5.57;2.60;;;15.70;99.90;;;;;;5038337;28;20192;-74
2023/02/18 11:26:06;;;;;;;3.80;2.07;;;16.00;99.90;;;;;;5034162;28;20258;-74
2023/02/18 11:28:39;;;;;;;5.17;2.37;;;15.20;99.90;;;;;;5066690;28;20190;-74
2023/02/18 11:31:06;;;;;;;4.10;2.40;;;14.90;99.90;;;;;;5037365;28;20701;-74
2023/02/18 11:33:43;;;;;;;3.33;2.20;;;14.60;99.90;;;;;;5034982;28;20199;-74
2023/02/18 11:36:26;;;;;;;4.67;2.23;;;14.20;99.90;;;;;;5039105;28;20194;-74
2023/02/18 11:39:25;;;;;;;5.27;2.50;;;14.40;99.90;;;;;;5044067;28;20310;-74
2023/02/18 11:42:05;;;;;;;2.87;2.20;;;14.40;99.90;;;;;;5063032;28;20828;-74
2023/02/18 11:44:47;;;;;;;4.27;2.40;;;14.50;99.90;;;;;;5044615;28;20194;-74
2023/02/18 11:47:13;;;;;;;3.83;2.27;;;14.50;99.90;;;;;;5039965;28;20306;-74
2023/02/18 11:49:43;;;;;;;2.80;2.10;;;14.60;99.90;;;;;;5048221;28;20305;-74
2023/02/18 11:52:22;;;;;;;3.67;2.00;;;14.60;99.90;;;;;;5053397;28;20292;-74
2023/02/18 11:55:11;;;;;;;4.23;2.37;;;14.70;99.90;;;;;;5038918;28;21486;-74
2023/02/18 11:57:43;;;;;;;5.80;2.27;;;14.60;99.90;;;;;;5041497;28;20176;-74
2023/02/18 12:00:38;;;;;;;3.97;2.10;;;14.60;99.90;;;;;;5054228;28;20747;-74
2023/02/18 12:03:41;;;;;;;4.30;1.90;;;14.60;99.90;;;;;;5054318;28;20246;-74
2023/02/18 12:06:36;;;;;;;5.17;2.30;;;14.60;99.90;;;;;;5039069;28;20230;-74
2023/02/18 12:09:41;;;;;;;3.03;2.13;;;14.70;99.90;;;;;;5065322;28;20223;-74
2023/02/18 12:13:02;;;;;;;4.73;2.40;;;14.60;99.90;;;;;;5036438;28;20188;-74
2023/02/18 12:15:53;;;;;;;8.47;2.30;;;14.60;99.90;;;;;;5044200;28;20508;-74
2023/02/18 12:19:27;;;;;;;5.93;2.33;;;14.60;99.90;;;;;;5039874;28;20680;-74
2023/02/18 12:22:21;;;;;;;3.60;2.70;;;14.40;99.90;;;;;;5010216;28;20708;-74
2023/02/18 12:24:50;;;;;;;4.60;2.30;;;14.00;99.90;;;;;;5042930;28;20188;-74
2023/02/18 12:27:22;;;;;;;7.47;2.60;;;14.00;99.90;;;;;;5045860;28;20191;-74
2023/02/18 12:29:51;;;;;;;3.20;2.40;;;14.10;99.90;;;;;;5038491;28;20708;-74
2023/02/18 12:32:53;;;;;;;4.27;2.40;;;14.20;99.90;;;;;;5060413;28;20210;-74
2023/02/18 12:35:36;;;;;;;3.67;2.30;;;14.10;99.90;;;;;;5038725;28;20184;-74
2023/02/18 12:38:40;;;;;;;3.33;2.27;;;14.00;99.90;;;;;;5042948;28;20187;-74
2023/02/18 12:41:34;;;;;;;4.27;2.70;;;13.80;99.90;;;;;;5038767;28;20277;-74
2023/02/18 12:44:29;;;;;;;3.57;2.50;;;14.10;99.90;;;;;;5044037;28;20271;-74
2023/02/18 12:47:30;;;;;;;2.83;2.10;;;14.00;99.90;;;;;;5043129;28;20199;-73
2023/02/18 12:50:29;;;;;;;9.83;2.87;;;13.60;99.90;;;;;;5042073;28;20611;-74
2023/02/18 12:53:49;;;;;;;4.70;2.63;;;13.50;99.90;;;;;;5045800;28;20180;-74
2023/02/18 12:56:43;;;;;;;5.40;2.30;;;13.40;99.90;;;;;;5059797;28;20195;-74
2023/02/18 12:59:35;;;;;;;2.47;2.20;;;13.80;99.90;;;;;;5041248;28;20195;-74
2023/02/18 13:02:47;;;;;;;5.63;2.87;;;13.70;99.90;;;;;;5041413;28;20672;-74
2023/02/18 13:05:16;;;;;;;5.40;2.40;;;14.00;99.90;;;;;;5040650;28;20199;-74
2023/02/18 13:08:35;;;;;;;2.90;2.37;;;14.00;99.90;;;;;;5044452;28;20195;-74
2023/02/18 13:11:35;;;;;;;2.90;2.40;;;14.10;99.90;;;;;;5056282;28;20686;-74
2023/02/18 13:14:19;;;;;;;2.77;2.30;;;13.60;99.90;;;;;;5042019;28;20536;-74
2023/02/18 13:16:51;;;;;;;5.80;2.50;;;13.60;99.90;;;;;;5039022;28;20892;-74
2023/02/18 13:19:49;;;;;;;7.17;2.90;;;13.70;99.90;;;;;;5042967;28;20190;-74
2023/02/18 13:22:19;;;;;;;7.70;2.50;;;13.70;99.90;;;;;;5053532;28;20188;-73
2023/02/18 13:24:50;;;;;;;4.43;2.40;;;13.70;99.90;;;;;;5041096;28;20183;-74
2023/02/18 13:27:27;;;;;;;5.07;2.60;;;13.70;99.90;;;;;;5042919;28;20266;-73
2023/02/18 13:30:18;;;;;;;3.97;2.50;;;13.70;99.90;;;;;;5042406;28;20210;-74
2023/02/18 13:33:16;;;;;;;5.03;2.47;;;13.60;99.90;;;;;;5053254;28;20278;-73
2023/02/18 13:35:59;;;;;;;4.47;2.50;;;13.30;99.90;;;;;;5041499;28;20187;-74